Time;durP1;ratioP1;P1;durP2;ratioP2;P2;SDS_P1;SDS_P2;PMS_P1;PMS_P2;Temp;Humidity;BMP_temperature;BMP_pressure;BME280_temperature;BME280_humidity;BME280_pressure;Samples;Min_cycle;Max_cycle;Signal;HPM_P1;HPM_P2
2023/03/08 00:00:16;;;;;;;27.50;14.80;;;;;;;10.17;41.08;99580.86;108035;1281;21988;-66
2023/03/08 00:02:46;;;;;;;24.70;14.50;;;;;;;10.18;40.96;99580.67;108094;1288;21985;-64
2023/03/08 00:05:11;;;;;;;25.70;15.50;;;;;;;10.16;40.95;99577.05;107991;1288;24476;-64
2023/03/08 00:07:37;;;;;;;29.30;16.00;;;;;;;10.11;41.13;99577.35;107993;1289;21984;-65
2023/03/08 00:10:06;;;;;;;28.80;16.10;;;;;;;10.07;41.22;99578.33;107288;1289;1002503;-66
2023/03/08 00:12:33;;;;;;;27.00;16.30;;;;;;;10.04;41.60;99580.11;108041;1276;22003;-65
2023/03/08 00:14:59;;;;;;;27.50;17.10;;;;;;;10.06;41.65;99577.46;108013;1289;21988;-65
2023/03/08 00:17:29;;;;;;;;;;;;;;;10.10;41.62;99575.09;108024;1289;21970;-65
2023/03/08 00:19:56;;;;;;;24.10;14.80;;;;;;;10.14;41.55;99570.08;108025;1289;21986;-65
2023/03/08 00:22:21;;;;;;;27.00;14.40;;;;;;;10.16;41.51;99570.23;108053;1289;21992;-65
2023/03/08 00:24:47;;;;;;;22.80;15.00;;;;;;;10.13;41.67;99571.86;107946;1289;23702;-63
2023/03/08 00:27:13;;;;;;;23.30;13.60;;;;;;;10.11;41.65;99573.84;108003;1289;21988;-64
2023/03/08 00:29:39;;;;;;;24.40;14.20;;;;;;;10.10;41.82;99571.39;108031;1289;21992;-65
2023/03/08 00:32:05;;;;;;;27.50;16.30;;;;;;;10.11;42.13;99567.34;107274;1289;1003182;-64
2023/03/08 00:34:32;;;;;;;28.10;15.40;;;;;;;10.14;42.43;99564.30;108051;1288;21989;-64
2023/03/08 00:37:01;;;;;;;28.90;17.20;;;;;;;10.16;42.46;99566.88;108040;1288;21985;-66
2023/03/08 00:39:27;;;;;;;28.70;17.30;;;;;;;10.16;42.50;99569.16;108000;1288;21987;-65
2023/03/08 00:41:53;;;;;;;28.50;17.10;;;;;;;10.13;42.64;99568.54;108043;1289;21992;-66
2023/03/08 00:44:19;;;;;;;29.30;16.70;;;;;;;10.10;42.70;99568.41;107358;1288;1003224;-65
2023/03/08 00:46:44;;;;;;;27.90;17.30;;;;;;;10.08;42.61;99570.41;107996;1289;22926;-64
2023/03/08 00:49:10;;;;;;;28.00;16.30;;;;;;;10.04;42.52;99565.75;108049;1283;22206;-66
2023/03/08 00:51:37;;;;;;;30.20;16.70;;;;;;;10.02;42.43;99560.19;108002;1289;21995;-66
2023/03/08 00:54:06;;;;;;;28.30;17.40;;;;;;;9.99;42.47;99559.02;107786;1281;21991;-66
2023/03/08 00:56:32;;;;;;;30.90;17.60;;;;;;;10.00;42.50;99556.73;108022;1288;21993;-66
2023/03/08 00:58:57;;;;;;;27.10;17.20;;;;;;;10.00;42.40;99554.64;108031;1288;21986;-66
2023/03/08 01:01:23;;;;;;;27.20;17.90;;;;;;;9.96;42.44;99554.17;108036;1286;22004;-66
2023/03/08 01:03:49;;;;;;;27.30;16.10;;;;;;;9.91;42.61;99554.13;108008;1287;22000;-66
2023/03/08 01:06:15;;;;;;;30.60;16.80;;;;;;;9.86;42.63;99554.41;107995;1288;21985;-66
2023/03/08 01:08:41;;;;;;;27.20;17.30;;;;;;;9.83;42.87;99555.90;108066;1289;22000;-65
2023/03/08 01:11:16;;;;;;;27.60;16.80;;;;;;;9.79;43.10;99555.44;107973;1289;22042;-65
2023/03/08 01:13:42;;;;;;;28.80;17.20;;;;;;;9.74;43.18;99550.64;107930;1288;21987;-64
2023/03/08 01:16:18;;;;;;;29.60;18.60;;;;;;;9.67;43.24;99548.34;108021;1289;23054;-65
2023/03/08 01:18:45;;;;;;;34.50;19.80;;;;;;;9.63;43.30;99549.14;108086;1289;21986;-64
2023/03/08 01:21:11;;;;;;;28.30;17.50;;;;;;;9.57;43.50;99547.16;107927;1288;21993;-64
2023/03/08 01:23:36;;;;;;;31.40;17.80;;;;;;;9.51;43.66;99544.67;107702;1289;21998;-65
2023/03/08 01:26:22;;;;;;;31.60;17.40;;;;;;;9.39;43.78;99537.90;108048;1288;21989;-66
2023/03/08 01:28:48;;;;;;;30.70;17.50;;;;;;;9.26;44.18;99534.33;108038;1288;22031;-64
2023/03/08 01:31:19;;;;;;;29.00;17.20;;;;;;;9.22;44.56;99534.92;108049;1289;22004;-65
2023/03/08 01:33:46;;;;;;;26.10;16.10;;;;;;;9.27;44.59;99532.73;108067;1288;23760;-64
2023/03/08 01:36:14;;;;;;;26.90;17.10;;;;;;;9.18;44.83;99536.77;108034;1288;23743;-65
2023/03/08 01:38:40;;;;;;;29.70;18.90;;;;;;;9.14;44.81;99537.73;108032;1289;22010;-65
2023/03/08 01:41:06;;;;;;;30.40;17.80;;;;;;;9.09;44.92;99536.23;108012;1289;21995;-65
2023/03/08 01:43:37;;;;;;;30.50;17.30;;;;;;;9.08;45.08;99532.75;108067;1288;22059;-65
2023/03/08 01:46:04;;;;;;;;;;;;;;;9.20;44.61;99534.09;108079;1289;21972;-66
2023/03/08 01:48:54;;;;;;;29.30;16.60;;;;;;;9.23;44.70;99527.73;108143;1289;22457;-65
2023/03/08 01:51:27;;;;;;;30.60;17.70;;;;;;;9.21;44.71;99525.67;108057;1289;23643;-65
2023/03/08 01:53:53;;;;;;;27.70;16.40;;;;;;;9.23;44.76;99532.98;108031;1288;21990;-64
2023/03/08 01:56:19;;;;;;;24.00;15.50;;;;;;;9.31;44.53;99533.16;108060;1287;22061;-66
2023/03/08 01:58:45;;;;;;;31.20;17.60;;;;;;;9.35;44.27;99529.23;107302;1289;1002485;-65
2023/03/08 02:01:12;;;;;;;27.80;16.90;;;;;;;9.34;44.01;99527.84;107985;1289;21988;-66
2023/03/08 02:03:38;;;;;;;30.40;18.20;;;;;;;9.34;44.06;99529.61;107980;1289;22005;-65
2023/03/08 02:06:05;;;;;;;26.70;17.70;;;;;;;9.34;44.23;99532.24;108067;1288;23053;-65
2023/03/08 02:08:32;;;;;;;26.00;17.60;;;;;;;9.29;45.14;99531.65;108038;1289;21983;-65
2023/03/08 02:11:00;;;;;;;29.40;17.50;;;;;;;9.23;45.29;99530.20;108011;1289;21991;-65
2023/03/08 02:13:31;;;;;;;30.40;18.40;;;;;;;9.19;45.51;99526.95;108086;1288;21986;-65
2023/03/08 02:15:56;;;;;;;31.60;18.40;;;;;;;9.19;45.66;99527.13;107676;1289;21996;-66
2023/03/08 02:18:22;;;;;;;31.10;18.60;;;;;;;9.19;46.16;99531.15;107684;1288;22027;-65
2023/03/08 02:20:52;;;;;;;28.90;18.20;;;;;;;9.17;46.56;99534.15;107982;1289;21998;-66
2023/03/08 02:23:24;;;;;;;32.60;19.30;;;;;;;9.18;46.83;99528.88;108047;1289;21985;-66
2023/03/08 02:25:54;;;;;;;31.40;19.10;;;;;;;9.19;47.28;99531.30;108051;1288;21977;-66
2023/03/08 02:28:23;;;;;;;36.20;20.10;;;;;;;9.19;47.00;99530.42;107954;1289;21998;-65
2023/03/08 02:30:49;;;;;;;34.70;20.50;;;;;;;9.20;46.94;99534.98;108037;1289;21986;-64
2023/03/08 02:33:18;;;;;;;40.00;20.00;;;;;;;9.20;47.55;99534.11;108064;1288;21986;-66
2023/03/08 02:35:44;;;;;;;35.30;19.90;;;;;;;9.21;48.26;99534.77;108090;1289;21995;-65
2023/03/08 02:38:10;;;;;;;30.10;18.90;;;;;;;9.24;48.15;99525.45;108020;1289;22098;-66
2023/03/08 02:40:37;;;;;;;38.40;22.50;;;;;;;9.26;48.22;99522.09;108061;1281;21988;-65
2023/03/08 02:43:03;;;;;;;32.60;20.10;;;;;;;9.22;48.29;99517.95;107981;1289;22026;-63
2023/03/08 02:45:32;;;;;;;32.10;19.20;;;;;;;9.21;48.22;99518.85;107904;1289;21998;-65
2023/03/08 02:47:59;;;;;;;29.70;18.00;;;;;;;9.20;48.33;99519.90;108032;1289;22022;-67
2023/03/08 02:50:25;;;;;;;30.60;19.00;;;;;;;9.22;48.46;99522.48;107779;1289;355924;-68
2023/03/08 02:52:53;;;;;;;31.50;18.50;;;;;;;9.24;48.71;99521.23;107994;1289;21983;-67
2023/03/08 02:55:19;;;;;;;30.70;18.00;;;;;;;9.25;49.03;99519.83;107968;1289;21986;-67
2023/03/08 02:57:45;;;;;;;31.40;18.30;;;;;;;9.27;49.83;99523.27;107995;1289;22059;-67
2023/03/08 03:00:12;;;;;;;29.50;17.30;;;;;;;9.27;51.62;99520.47;107990;1289;22018;-65
2023/03/08 03:02:39;;;;;;;29.10;17.30;;;;;;;9.28;54.10;99520.45;107631;1289;23628;-66
2023/03/08 03:05:06;;;;;;;26.50;17.10;;;;;;;9.37;54.25;99521.15;108016;1289;21993;-66
2023/03/08 03:07:36;;;;;;;30.30;16.10;;;;;;;9.52;52.05;99520.81;107972;1288;21974;-65
2023/03/08 03:10:03;;;;;;;23.00;14.50;;;;;;;9.65;52.01;99521.95;108040;1289;23652;-65
2023/03/08 03:12:29;;;;;;;25.70;15.30;;;;;;;9.78;53.70;99517.63;108010;1286;22030;-65
2023/03/08 03:14:56;;;;;;;24.50;14.30;;;;;;;9.92;54.82;99519.95;108047;1289;21993;-64
2023/03/08 03:17:21;;;;;;;24.40;14.60;;;;;;;10.07;55.43;99516.26;107948;1289;21987;-63
2023/03/08 03:19:47;;;;;;;24.70;16.50;;;;;;;10.20;55.52;99521.04;107937;1276;21996;-66
2023/03/08 03:22:13;;;;;;;23.90;15.00;;;;;;;10.33;53.64;99528.44;108000;1289;21996;-65
2023/03/08 03:24:39;;;;;;;21.20;14.90;;;;;;;10.41;53.12;99531.42;108007;1288;21994;-66
2023/03/08 03:27:05;;;;;;;20.90;13.90;;;;;;;10.46;52.22;99530.95;107991;1289;21995;-67
2023/03/08 03:29:30;;;;;;;20.60;14.30;;;;;;;10.46;51.58;99539.02;107999;1289;21989;-66
2023/03/08 03:31:57;;;;;;;24.20;14.80;;;;;;;10.41;51.15;99545.45;107996;1288;21986;-66
2023/03/08 03:34:23;;;;;;;26.90;15.70;;;;;;;10.28;51.10;99543.63;107928;1289;21992;-65
2023/03/08 03:36:49;;;;;;;22.60;15.30;;;;;;;10.17;50.34;99538.64;107949;1289;21991;-66
2023/03/08 03:39:15;;;;;;;23.70;14.40;;;;;;;10.02;51.06;99541.44;108024;1289;21983;-66
2023/03/08 03:41:41;;;;;;;23.20;14.80;;;;;;;9.93;50.66;99533.93;107981;1289;21983;-65
2023/03/08 03:44:07;;;;;;;24.60;13.80;;;;;;;9.91;50.40;99530.65;108018;1286;22452;-65
2023/03/08 03:46:35;;;;;;;22.30;13.20;;;;;;;9.92;50.27;99536.77;107988;1289;23719;-66
2023/03/08 03:49:00;;;;;;;22.10;13.40;;;;;;;9.93;50.45;99542.70;107995;1288;21992;-66
2023/03/08 03:51:26;;;;;;;26.10;16.20;;;;;;;9.83;52.32;99542.04;108012;1289;22006;-66
2023/03/08 03:53:52;;;;;;;21.40;14.40;;;;;;;9.77;51.76;99543.93;108038;1288;21989;-65
2023/03/08 03:56:19;;;;;;;23.90;14.00;;;;;;;9.75;51.11;99545.73;107928;1276;21992;-66
2023/03/08 03:58:45;;;;;;;23.40;15.00;;;;;;;9.78;51.42;99544.44;107942;1288;22747;-65
2023/03/08 04:01:19;;;;;;;25.20;15.40;;;;;;;9.83;50.86;99545.73;108079;1288;21988;-64
2023/03/08 04:03:46;;;;;;;20.20;12.60;;;;;;;9.85;50.60;99546.92;108114;1289;21983;-66
2023/03/08 04:06:22;;;;;;;23.30;14.30;;;;;;;9.84;50.77;99548.67;108115;1288;22448;-65
2023/03/08 04:08:51;;;;;;;21.10;14.00;;;;;;;9.83;50.52;99548.36;107993;1289;21984;-66
2023/03/08 04:11:19;;;;;;;26.00;15.00;;;;;;;9.82;50.24;99549.25;108003;1288;23462;-65
2023/03/08 04:13:45;;;;;;;22.30;14.90;;;;;;;9.79;50.13;99548.27;108032;1289;21996;-66
2023/03/08 04:16:21;;;;;;;23.50;13.90;;;;;;;9.75;50.20;99546.23;108010;1288;22057;-66
2023/03/08 04:18:52;;;;;;;21.70;13.80;;;;;;;9.73;50.16;99542.27;108042;1289;21986;-66
2023/03/08 04:21:18;;;;;;;20.50;11.30;;;;;;;9.72;50.41;99538.08;108090;1288;22576;-66
2023/03/08 04:23:44;;;;;;;26.00;13.70;;;;;;;9.69;51.53;99541.66;108050;1289;21994;-64
2023/03/08 04:26:09;;;;;;;23.40;13.40;;;;;;;9.72;50.77;99543.52;107988;1289;22068;-67
2023/03/08 04:28:36;;;;;;;22.80;13.60;;;;;;;9.75;51.10;99548.18;108100;1289;21998;-65
2023/03/08 04:31:26;;;;;;;21.70;14.40;;;;;;;9.77;51.06;99546.89;107953;1276;21987;-64
2023/03/08 04:33:53;;;;;;;24.50;13.90;;;;;;;9.81;51.39;99548.58;107935;1286;23567;-66
2023/03/08 04:36:19;;;;;;;21.30;13.50;;;;;;;9.82;51.64;99547.14;108055;1288;22188;-66
2023/03/08 04:38:45;;;;;;;23.10;14.30;;;;;;;9.87;51.54;99551.27;108068;1289;22001;-67
2023/03/08 04:41:11;;;;;;;21.30;14.00;;;;;;;9.88;51.82;99552.98;108016;1288;21990;-66
2023/03/08 04:43:38;;;;;;;21.60;13.70;;;;;;;9.90;51.42;99553.46;108038;1289;21995;-65
2023/03/08 04:46:05;;;;;;;25.30;16.10;;;;;;;9.91;51.20;99544.51;108078;1289;21986;-67
2023/03/08 04:48:32;;;;;;;20.90;14.20;;;;;;;9.89;51.90;99543.66;108084;1280;22051;-64
2023/03/08 04:50:59;;;;;;;24.00;14.70;;;;;;;9.88;51.81;99543.52;107690;1288;23603;-65
2023/03/08 04:53:26;;;;;;;23.60;14.20;;;;;;;9.88;51.66;99548.25;108093;1289;22041;-64
2023/03/08 04:55:52;;;;;;;26.50;14.80;;;;;;;9.89;51.74;99561.35;108046;1289;21992;-65
2023/03/08 04:58:18;;;;;;;22.00;13.40;;;;;;;9.96;51.38;99562.77;108140;1288;22002;-66
2023/03/08 05:00:45;;;;;;;22.10;14.30;;;;;;;10.03;51.67;99564.39;108091;1288;21982;-65
2023/03/08 05:03:12;;;;;;;23.90;14.10;;;;;;;10.07;51.41;99567.09;108015;1288;21986;-64
2023/03/08 05:05:49;;;;;;;23.00;13.90;;;;;;;10.09;51.46;99565.12;107745;1289;21969;-66
2023/03/08 05:08:16;;;;;;;21.90;13.40;;;;;;;10.12;51.06;99568.90;108053;1289;23654;-65
2023/03/08 05:10:48;;;;;;;23.20;14.40;;;;;;;10.14;51.13;99574.12;108050;1287;21981;-67
2023/03/08 05:13:15;;;;;;;21.00;12.20;;;;;;;10.18;51.31;99576.48;108102;1288;21988;-64
2023/03/08 05:15:42;;;;;;;23.70;14.00;;;;;;;10.21;51.95;99580.95;108017;1289;21991;-64
2023/03/08 05:18:10;;;;;;;22.90;13.90;;;;;;;10.23;51.94;99586.52;108071;1288;23663;-67
2023/03/08 05:20:36;;;;;;;22.60;14.70;;;;;;;10.32;51.56;99585.80;108011;1289;21987;-68
2023/03/08 05:23:03;;;;;;;20.40;13.30;;;;;;;10.38;51.45;99584.77;108012;1287;21989;-65
2023/03/08 05:25:30;;;;;;;24.10;14.90;;;;;;;10.46;51.63;99587.59;107916;1289;21990;-67
2023/03/08 05:27:56;;;;;;;26.30;15.50;;;;;;;10.53;51.51;99588.99;107934;1287;21996;-67
2023/03/08 05:30:22;;;;;;;24.60;16.30;;;;;;;10.59;51.55;99591.48;108002;1289;21989;-67
2023/03/08 05:32:47;;;;;;;23.90;15.30;;;;;;;10.64;51.30;99598.36;108052;1288;21998;-67
2023/03/08 05:35:13;;;;;;;21.80;14.40;;;;;;;10.69;51.20;99605.80;108077;1289;22000;-66
2023/03/08 05:37:39;;;;;;;23.70;13.40;;;;;;;10.73;51.56;99609.58;108036;1289;21987;-67
2023/03/08 05:40:06;;;;;;;20.70;13.50;;;;;;;10.81;51.25;99602.52;108095;1289;21987;-64
2023/03/08 05:42:32;;;;;;;21.90;14.10;;;;;;;10.89;51.32;99604.60;107813;1289;23627;-67
2023/03/08 05:44:59;;;;;;;23.20;13.90;;;;;;;10.95;51.59;99607.23;108078;1286;21986;-63
2023/03/08 05:47:25;;;;;;;22.70;14.80;;;;;;;11.01;51.54;99610.77;108042;1280;21997;-66
2023/03/08 05:49:51;;;;;;;25.50;14.00;;;;;;;11.07;51.48;99610.79;107940;1289;21983;-66
2023/03/08 05:52:17;;;;;;;27.40;13.90;;;;;;;11.14;51.56;99612.17;107968;1289;21998;-66
2023/03/08 05:54:43;;;;;;;27.40;14.70;;;;;;;11.21;51.38;99611.12;108004;1289;22001;-64
2023/03/08 05:57:09;;;;;;;22.20;14.20;;;;;;;11.28;51.48;99612.69;107991;1289;21986;-66
2023/03/08 05:59:34;;;;;;;25.80;14.50;;;;;;;11.35;51.32;99614.95;108008;1288;22460;-64
2023/03/08 06:02:00;;;;;;;24.40;14.50;;;;;;;11.45;51.08;99615.92;107989;1288;21995;-64
2023/03/08 06:04:26;;;;;;;22.40;15.00;;;;;;;11.53;51.21;99616.38;108018;1283;22029;-66
2023/03/08 06:06:53;;;;;;;18.60;12.10;;;;;;;11.60;50.96;99615.66;108124;1288;21984;-64
2023/03/08 06:09:19;;;;;;;19.60;12.90;;;;;;;11.66;51.20;99618.31;108041;1286;23481;-67
2023/03/08 06:11:47;;;;;;;18.90;13.10;;;;;;;11.75;51.29;99622.61;108024;1288;21987;-65
2023/03/08 06:14:13;;;;;;;23.20;13.60;;;;;;;11.84;51.19;99627.82;108047;1287;22024;-66
2023/03/08 06:16:41;;;;;;;24.10;13.70;;;;;;;11.92;51.51;99630.55;108029;1287;22003;-64
2023/03/08 06:19:09;;;;;;;20.40;13.60;;;;;;;12.00;51.35;99634.53;108069;1287;22024;-64
2023/03/08 06:21:35;;;;;;;23.30;12.70;;;;;;;12.10;51.23;99636.40;108037;1289;21986;-65
2023/03/08 06:24:00;;;;;;;16.60;12.00;;;;;;;12.19;51.02;99630.65;108082;1289;23315;-66
2023/03/08 06:26:26;;;;;;;20.70;14.30;;;;;;;12.29;50.80;99630.34;108065;1288;21986;-65
2023/03/08 06:28:52;;;;;;;18.60;13.40;;;;;;;12.38;50.52;99628.13;108036;1287;22027;-66
2023/03/08 06:31:21;;;;;;;23.20;14.10;;;;;;;12.46;50.21;99628.22;108072;1288;21992;-67
2023/03/08 06:33:47;;;;;;;20.20;13.60;;;;;;;12.55;50.24;99630.59;108089;1289;21987;-66
2023/03/08 06:36:15;;;;;;;21.70;13.60;;;;;;;12.67;50.58;99627.90;107905;1289;21994;-67
2023/03/08 06:38:41;;;;;;;19.60;13.40;;;;;;;12.84;50.82;99624.52;108002;1288;21992;-66
2023/03/08 06:41:08;;;;;;;20.80;11.80;;;;;;;12.95;51.53;99620.27;108105;1288;21988;-67
2023/03/08 06:43:34;;;;;;;17.80;12.30;;;;;;;13.23;51.44;99620.21;108083;1289;21991;-65
2023/03/08 06:46:05;;;;;;;18.30;12.70;;;;;;;13.52;50.81;99624.67;108090;1288;21986;-65
2023/03/08 06:48:34;;;;;;;19.40;12.80;;;;;;;13.79;51.06;99623.30;108022;1288;21983;-67
2023/03/08 06:51:00;;;;;;;21.50;13.40;;;;;;;14.08;50.79;99623.44;108120;1289;22031;-66
2023/03/08 06:53:25;;;;;;;21.90;12.40;;;;;;;14.39;50.51;99622.77;107744;1288;22949;-65
2023/03/08 06:55:51;;;;;;;20.60;12.50;;;;;;;14.74;50.46;99625.45;107840;1288;21989;-67
2023/03/08 06:58:17;;;;;;;19.20;12.00;;;;;;;15.06;49.38;99624.30;108034;1288;21993;-67
2023/03/08 07:00:43;;;;;;;19.20;11.80;;;;;;;15.38;48.85;99618.50;108124;1276;21981;-66
2023/03/08 07:03:11;;;;;;;16.50;10.90;;;;;;;15.71;47.95;99617.73;108079;1288;21983;-66
2023/03/08 07:05:36;;;;;;;18.60;12.10;;;;;;;16.06;47.72;99619.14;108048;1288;22031;-66
2023/03/08 07:08:05;;;;;;;15.50;10.20;;;;;;;16.40;46.92;99623.37;108098;1289;23743;-66
2023/03/08 07:10:31;;;;;;;16.70;10.60;;;;;;;16.77;46.10;99617.15;108081;1289;23644;-67
2023/03/08 07:12:59;;;;;;;17.30;10.50;;;;;;;17.08;45.63;99613.48;108095;1288;22671;-68
2023/03/08 07:15:26;;;;;;;12.80;7.80;;;;;;;17.42;45.16;99611.92;108049;1288;21994;-66
2023/03/08 07:17:55;;;;;;;10.20;7.00;;;;;;;17.87;44.22;99607.75;108086;1288;22457;-68
2023/03/08 07:20:21;;;;;;;9.40;7.00;;;;;;;18.31;43.30;99607.63;108076;1288;21991;-67
2023/03/08 07:22:47;;;;;;;9.30;6.80;;;;;;;18.68;42.28;99605.34;108071;1288;21986;-67
2023/03/08 07:25:14;;;;;;;8.90;6.40;;;;;;;18.95;42.58;99598.84;108033;1288;22023;-66
2023/03/08 07:27:41;;;;;;;10.20;7.00;;;;;;;19.17;40.67;99598.79;108132;1288;23641;-67
2023/03/08 07:30:09;;;;;;;10.30;7.00;;;;;;;19.37;39.76;99599.36;107973;1289;21993;-66
2023/03/08 07:32:35;;;;;;;10.10;6.50;;;;;;;19.62;40.19;99595.67;108212;1286;21998;-66
2023/03/08 07:35:01;;;;;;;11.90;6.90;;;;;;;19.79;40.31;99598.36;108061;1288;22013;-68
2023/03/08 07:37:27;;;;;;;11.60;6.70;;;;;;;19.88;39.60;99595.66;108030;1288;22004;-67
2023/03/08 07:39:52;;;;;;;9.70;6.30;;;;;;;19.98;38.57;99597.13;108033;1289;21995;-67
2023/03/08 07:42:18;;;;;;;10.90;6.00;;;;;;;20.07;37.55;99597.86;108086;1288;21985;-67
2023/03/08 07:44:44;;;;;;;10.60;6.10;;;;;;;20.24;38.36;99592.33;107913;1288;21997;-67
2023/03/08 07:47:10;;;;;;;9.40;5.40;;;;;;;20.36;37.40;99597.77;108037;1289;22037;-68
2023/03/08 07:49:36;;;;;;;8.20;4.90;;;;;;;20.38;36.45;99601.94;107911;1289;22449;-67
2023/03/08 07:52:06;;;;;;;8.20;5.30;;;;;;;20.35;37.21;99602.42;108060;1288;21986;-67
2023/03/08 07:54:32;;;;;;;8.30;5.50;;;;;;;20.33;36.64;99600.29;108040;1288;23723;-67
2023/03/08 07:56:58;;;;;;;9.10;5.60;;;;;;;20.34;36.21;99599.33;108039;1288;22011;-67
2023/03/08 07:59:24;;;;;;;9.00;5.80;;;;;;;20.29;36.28;99597.50;108062;1288;21992;-66
2023/03/08 08:01:49;;;;;;;8.80;6.20;;;;;;;20.26;36.12;99597.39;108049;1289;21990;-66
2023/03/08 08:04:15;;;;;;;12.50;6.30;;;;;;;20.24;36.26;99594.81;108074;1288;21992;-66
2023/03/08 08:06:41;;;;;;;11.20;6.30;;;;;;;20.20;35.97;99591.67;108046;1288;21986;-65
2023/03/08 08:09:07;;;;;;;9.40;5.70;;;;;;;20.21;35.94;99593.04;108043;1287;21986;-66
2023/03/08 08:11:38;;;;;;;10.50;6.50;;;;;;;20.19;35.78;99593.15;108099;1288;21986;-66
2023/03/08 08:14:05;;;;;;;8.80;5.70;;;;;;;20.20;35.58;99587.60;105829;1288;1002638;-66
2023/03/08 08:16:31;;;;;;;10.10;5.50;;;;;;;20.30;35.11;99585.18;108083;1283;21984;-67
2023/03/08 08:18:59;;;;;;;10.00;5.80;;;;;;;20.47;35.47;99580.83;108105;1288;22006;-66
2023/03/08 08:21:25;;;;;;;10.70;5.30;;;;;;;20.56;35.07;99579.86;108099;1288;22028;-65
2023/03/08 08:23:52;;;;;;;9.30;5.80;;;;;;;20.60;34.55;99578.55;108052;1288;21993;-65
2023/03/08 08:26:19;;;;;;;9.70;5.20;;;;;;;20.66;34.56;99575.48;108089;1289;21983;-66
2023/03/08 08:28:47;;;;;;;10.20;4.90;;;;;;;20.75;35.10;99572.59;108079;1288;22279;-65
2023/03/08 08:31:17;;;;;;;9.10;5.20;;;;;;;20.76;34.34;99572.84;108062;1289;21995;-66
2023/03/08 08:33:44;;;;;;;10.90;5.30;;;;;;;20.77;34.16;99568.87;108093;1289;21989;-66
2023/03/08 08:36:12;;;;;;;10.00;5.70;;;;;;;20.82;33.86;99566.94;108055;1289;22060;-66
2023/03/08 08:38:42;;;;;;;11.20;5.60;;;;;;;20.93;34.30;99559.83;108138;1289;23776;-66
2023/03/08 08:41:08;;;;;;;8.50;5.60;;;;;;;21.13;34.33;99555.59;108131;1288;21984;-66
2023/03/08 08:43:37;;;;;;;7.30;5.10;;;;;;;21.37;33.95;99554.25;108011;1288;22452;-67
2023/03/08 08:46:03;;;;;;;10.00;6.00;;;;;;;21.57;33.94;99552.48;108085;1289;21992;-66
2023/03/08 08:48:31;;;;;;;8.20;5.30;;;;;;;21.79;33.37;99549.92;108065;1288;22025;-66
2023/03/08 08:50:58;;;;;;;8.70;5.20;;;;;;;21.94;32.89;99544.92;108110;1288;22044;-67
2023/03/08 08:53:24;;;;;;;6.80;4.30;;;;;;;22.15;32.96;99547.83;108048;1289;22031;-66
2023/03/08 08:55:49;;;;;;;7.20;4.40;;;;;;;22.33;32.16;99549.67;107948;1289;21985;-65
2023/03/08 08:58:15;;;;;;;8.90;4.80;;;;;;;22.40;30.84;99545.23;108115;1288;21983;-65
2023/03/08 09:00:41;;;;;;;7.40;4.20;;;;;;;22.51;30.53;99543.77;107368;1288;1006706;-67
2023/03/08 09:03:06;;;;;;;7.10;4.00;;;;;;;22.63;30.99;99544.06;108107;1289;22033;-65
2023/03/08 09:05:36;;;;;;;8.60;4.20;;;;;;;22.90;30.96;99546.84;108047;1288;21993;-65
2023/03/08 09:08:02;;;;;;;5.80;3.60;;;;;;;23.17;31.35;99550.55;107974;1288;22451;-65
2023/03/08 09:10:29;;;;;;;6.40;4.00;;;;;;;23.35;31.26;99549.15;108096;1288;21987;-65
2023/03/08 09:12:59;;;;;;;7.90;3.60;;;;;;;23.42;30.53;99551.64;108053;1288;21994;-65
2023/03/08 09:15:24;;;;;;;7.50;4.80;;;;;;;23.39;29.63;99542.73;108079;1288;21993;-66
2023/03/08 09:17:51;;;;;;;6.50;4.30;;;;;;;23.47;29.42;99544.66;108107;1288;21994;-65
2023/03/08 09:20:19;;;;;;;7.30;4.30;;;;;;;23.55;29.12;99541.54;107942;1289;22024;-66
2023/03/08 09:22:44;;;;;;;10.30;4.30;;;;;;;23.57;28.91;99547.79;108051;1288;22002;-67
2023/03/08 09:25:11;;;;;;;8.60;4.40;;;;;;;23.51;28.94;99546.44;108083;1288;21995;-65
2023/03/08 09:27:38;;;;;;;5.40;3.60;;;;;;;23.49;29.68;99544.88;108077;1288;21987;-64
2023/03/08 09:30:11;;;;;;;7.50;3.80;;;;;;;23.50;29.23;99542.58;108124;1288;22060;-66
2023/03/08 09:32:39;;;;;;;5.80;3.20;;;;;;;23.59;28.92;99539.93;108100;1289;22304;-65
2023/03/08 09:35:06;;;;;;;6.10;2.80;;;;;;;23.76;29.46;99531.81;108137;1289;21999;-65
2023/03/08 09:37:32;;;;;;;4.70;2.70;;;;;;;23.90;27.95;99529.06;108068;1288;21989;-67
2023/03/08 09:39:58;;;;;;;6.00;3.40;;;;;;;24.12;28.37;99532.44;108035;1289;21957;-65
2023/03/08 09:42:29;;;;;;;7.60;3.50;;;;;;;24.28;28.78;99530.48;108083;1289;22560;-65
2023/03/08 09:45:18;;;;;;;7.40;3.60;;;;;;;24.41;28.76;99520.36;108056;1289;23725;-67
2023/03/08 09:47:51;;;;;;;9.40;3.20;;;;;;;24.67;28.44;99510.48;108058;1288;21992;-66
2023/03/08 09:50:23;;;;;;;3.80;2.20;;;;;;;24.80;26.97;99512.84;107998;1288;21989;-65
2023/03/08 09:52:57;;;;;;;3.40;2.20;;;;;;;24.93;26.32;99508.65;108108;1288;21998;-66
2023/03/08 09:55:30;;;;;;;7.00;2.20;;;;;;;25.13;26.53;99509.65;108126;1288;22462;-66
2023/03/08 09:58:00;;;;;;;4.00;2.70;;;;;;;25.09;25.99;99503.32;108087;1289;22702;-67
2023/03/08 10:00:31;;;;;;;5.30;3.40;;;;;;;25.35;26.22;99507.55;107884;1288;21985;-66
2023/03/08 10:03:08;;;;;;;5.80;3.30;;;;;;;25.32;26.41;99512.17;108098;1287;21994;-66
2023/03/08 10:05:41;;;;;;;6.50;3.70;;;;;;;25.11;26.50;99509.84;108089;1288;21984;-66
2023/03/08 10:08:17;;;;;;;7.50;3.10;;;;;;;24.85;26.66;99505.25;108054;1288;21986;-65
2023/03/08 10:10:45;;;;;;;6.20;3.50;;;;;;;24.68;27.13;99509.69;108101;1289;21987;-65
2023/03/08 10:13:39;;;;;;;8.80;4.30;;;;;;;24.48;27.36;99509.09;108062;1288;21986;-66
2023/03/08 10:16:44;;;;;;;9.10;4.20;;;;;;;24.33;27.97;99506.86;107993;1289;22024;-65
2023/03/08 10:19:30;;;;;;;6.10;3.40;;;;;;;24.22;27.19;99501.56;107534;1295;21996;-67
2023/03/08 10:21:56;;;;;;;6.70;3.60;;;;;;;24.50;27.53;99495.27;107851;1289;21988;-66
2023/03/08 10:24:29;;;;;;;7.90;4.20;;;;;;;24.72;27.07;99500.57;108042;1289;22031;-65
2023/03/08 10:27:01;;;;;;;6.00;4.10;;;;;;;24.97;27.44;99501.18;107953;1289;22759;-65
2023/03/08 10:29:27;;;;;;;7.20;3.60;;;;;;;25.04;26.88;99498.44;107911;1289;21993;-68
2023/03/08 10:31:53;;;;;;;5.10;3.40;;;;;;;25.07;27.21;99499.25;108074;1289;21991;-64
2023/03/08 10:34:21;;;;;;;5.60;3.40;;;;;;;24.92;27.34;99493.68;108075;1288;21991;-68
2023/03/08 10:36:56;;;;;;;5.60;3.20;;;;;;;24.74;27.25;99496.45;108085;1288;22315;-68
2023/03/08 10:39:22;;;;;;;6.70;2.90;;;;;;;24.47;27.24;99492.10;108136;1289;22082;-65
2023/03/08 10:41:50;;;;;;;5.90;2.90;;;;;;;24.39;28.01;99489.73;108059;1289;21986;-68
2023/03/08 10:44:39;;;;;;;5.30;2.40;;;;;;;24.30;27.89;99487.28;108094;1289;21989;-66
2023/03/08 10:47:37;;;;;;;6.20;2.70;;;;;;;24.07;27.32;99485.59;108078;1289;21990;-65
2023/03/08 10:50:11;;;;;;;5.40;2.20;;;;;;;23.88;27.33;99479.35;107943;1289;21975;-66
2023/03/08 10:52:37;;;;;;;3.40;1.80;;;;;;;23.78;27.10;99476.98;108084;1289;22029;-66
2023/03/08 10:55:13;;;;;;;4.50;2.30;;;;;;;23.76;27.11;99483.74;108068;1288;21987;-65
2023/03/08 10:57:44;;;;;;;5.40;2.30;;;;;;;23.80;27.34;99476.52;108089;1289;23622;-66
2023/03/08 11:00:19;;;;;;;4.60;2.40;;;;;;;23.84;27.98;99471.48;108069;1289;21982;-66
2023/03/08 11:02:46;;;;;;;4.70;2.70;;;;;;;23.85;28.28;99470.34;108087;1289;21974;-64
2023/03/08 11:05:19;;;;;;;7.10;2.90;;;;;;;23.69;27.76;99462.52;108072;1289;22053;-65
2023/03/08 11:07:53;;;;;;;3.80;2.10;;;;;;;23.66;28.03;99456.66;108053;1288;21993;-66
2023/03/08 11:10:22;;;;;;;3.20;2.00;;;;;;;23.65;27.77;99453.89;108125;1288;22004;-66
2023/03/08 11:13:09;;;;;;;5.30;2.30;;;;;;;23.69;27.34;99456.00;108128;1289;23051;-65
2023/03/08 11:15:39;;;;;;;4.50;2.10;;;;;;;23.67;27.27;99450.88;108044;1289;22027;-65
2023/03/08 11:18:18;;;;;;;4.70;2.40;;;;;;;23.70;27.51;99447.02;108096;1288;21992;-66
2023/03/08 11:20:48;;;;;;;9.50;2.70;;;;;;;23.71;28.01;99436.20;108055;1288;22003;-67